Time;durP1;ratioP1;P1;durP2;ratioP2;P2;SDS_P1;SDS_P2;PMS_P1;PMS_P2;Temp;Humidity;BMP_temperature;BMP_pressure;BME280_temperature;BME280_humidity;BME280_pressure;Samples;Min_cycle;Max_cycle;Signal;HPM_P1;HPM_P2
2023/06/06 00:00:26;;;;;;;9.45;2.10;;;;;;;17.38;45.98;101601.13;5065258;28;20447;-57
2023/06/06 00:02:52;;;;;;;4.20;2.35;;;;;;;17.35;46.20;101609.34;5064740;28;20079;-57
2023/06/06 00:05:21;;;;;;;8.40;2.20;;;;;;;17.31;46.49;101601.59;5062882;28;20075;-57
2023/06/06 00:07:48;;;;;;;4.15;1.60;;;;;;;17.39;46.09;101600.19;5063376;28;20452;-56
2023/06/06 00:10:18;;;;;;;6.28;2.38;;;;;;;17.39;46.13;101599.31;5063128;28;20048;-57
2023/06/06 00:12:46;;;;;;;5.78;2.30;;;;;;;17.41;46.17;101600.97;5060924;28;20059;-56
2023/06/06 00:15:15;;;;;;;6.55;1.98;;;;;;;17.39;46.17;101589.50;5062757;28;20044;-56
2023/06/06 00:17:44;;;;;;;6.20;2.35;;;;;;;17.37;46.41;101596.75;5058213;28;20049;-57
2023/06/06 00:20:12;;;;;;;7.63;2.80;;;;;;;17.34;46.37;101598.75;5062663;28;20350;-57
2023/06/06 00:22:40;;;;;;;7.30;2.00;;;;;;;17.31;46.37;101606.94;5062912;28;20052;-57
2023/06/06 00:25:07;;;;;;;4.28;1.75;;;;;;;17.26;46.49;101593.84;5062862;28;20469;-57
2023/06/06 00:27:35;;;;;;;4.97;1.85;;;;;;;17.24;46.81;101595.75;5060740;28;20102;-56
2023/06/06 00:30:06;;;;;;;4.32;2.30;;;;;;;17.22;46.72;101587.00;5063354;28;20044;-57
2023/06/06 00:32:33;;;;;;;5.68;1.60;;;;;;;17.15;47.23;101594.53;5063090;28;20056;-57
2023/06/06 00:35:00;;;;;;;6.15;2.05;;;;;;;17.12;47.08;101585.84;5062066;28;20404;-57
2023/06/06 00:37:26;;;;;;;5.38;2.00;;;;;;;17.08;47.42;101590.47;5063644;28;20068;-57
2023/06/06 00:39:53;;;;;;;6.25;2.67;;;;;;;17.02;47.54;101591.72;5066029;28;20083;-57
2023/06/06 00:42:20;;;;;;;5.82;1.98;;;;;;;16.96;47.66;101591.22;5064697;28;20380;-57
2023/06/06 00:44:46;;;;;;;6.85;2.22;;;;;;;16.85;48.30;101594.50;5064558;28;20076;-56
2023/06/06 00:47:13;;;;;;;3.95;2.03;;;;;;;16.77;48.12;101588.72;5065332;28;20101;-57
2023/06/06 00:49:41;;;;;;;3.53;1.65;;;;;;;16.74;48.35;101586.25;5062180;28;20144;-57
2023/06/06 00:52:09;;;;;;;4.63;2.13;;;;;;;16.78;48.11;101593.13;5063672;28;20064;-56
2023/06/06 00:54:37;;;;;;;5.72;2.22;;;;;;;16.78;48.08;101593.13;5063452;28;20071;-57
2023/06/06 00:57:07;;;;;;;9.38;2.10;;;;;;;16.73;48.42;101589.88;5072241;28;20484;-57
2023/06/06 00:59:34;;;;;;;4.05;1.85;;;;;;;16.67;48.22;101586.63;5073026;28;20076;-57
2023/06/06 01:02:04;;;;;;;4.25;2.05;;;;;;;16.61;48.85;101591.44;5070398;28;20052;-56
2023/06/06 01:04:31;;;;;;;5.32;2.72;;;;;;;16.55;48.76;101595.31;5072534;28;20092;-57
2023/06/06 01:06:58;;;;;;;5.15;2.35;;;;;;;16.51;49.49;101599.13;5072515;28;20044;-57
2023/06/06 01:09:25;;;;;;;4.50;2.00;;;;;;;16.47;49.11;101589.56;5067028;28;20049;-57
2023/06/06 01:12:10;;;;;;;9.32;1.85;;;;;;;16.42;49.42;101599.66;5072373;28;20126;-56
2023/06/06 01:14:45;;;;;;;5.00;2.20;;;;;;;16.42;49.22;101595.16;5072051;28;20116;-56
2023/06/06 01:17:16;;;;;;;3.38;2.05;;;;;;;16.36;49.60;101597.31;5071214;28;20128;-57
2023/06/06 01:19:47;;;;;;;6.57;1.95;;;;;;;16.23;50.01;101592.69;5070802;28;20048;-58
2023/06/06 01:22:22;;;;;;;5.30;1.95;;;;;;;16.14;50.22;101587.88;5071666;28;20131;-57
2023/06/06 01:24:53;;;;;;;4.05;1.80;;;;;;;16.02;50.61;101583.19;5071753;28;20060;-57
2023/06/06 01:27:21;;;;;;;6.90;2.25;;;;;;;15.92;50.91;101581.06;5069529;28;20144;-58
2023/06/06 01:29:48;;;;;;;3.88;1.80;;;;;;;15.86;50.82;101584.06;5072545;28;20056;-57
2023/06/06 01:32:50;;;;;;;6.45;2.13;;;;;;;15.79;51.14;101582.69;5071609;28;20044;-58
2023/06/06 01:35:42;;;;;;;3.30;2.00;;;;;;;15.72;51.64;101589.25;5031549;28;20103;-57
2023/06/06 01:38:35;;;;;;;3.83;2.20;;;;;;;15.77;52.06;101584.53;5067487;28;20124;-57
2023/06/06 01:41:03;;;;;;;7.13;2.30;;;;;;;15.72;52.92;101591.91;5066917;28;20153;-58
2023/06/06 01:43:32;;;;;;;8.35;2.38;;;;;;;15.68;52.78;101590.38;5065793;28;20470;-58
2023/06/06 01:46:00;;;;;;;5.28;2.25;;;;;;;15.61;52.77;101597.78;5061454;28;20055;-57
2023/06/06 01:48:27;;;;;;;5.07;2.33;;;;;;;15.55;52.98;101591.00;5065376;28;20480;-56
2023/06/06 01:50:54;;;;;;;4.40;2.47;;;;;;;15.44;53.24;101593.38;5062422;28;20400;-57
2023/06/06 01:53:21;;;;;;;3.55;1.70;;;;;;;15.37;53.20;101592.00;5066293;28;20067;-57
2023/06/06 01:55:48;;;;;;;6.07;2.13;;;;;;;15.34;53.89;101597.47;5065734;28;20048;-57
2023/06/06 01:58:16;;;;;;;4.55;2.50;;;;;;;15.30;53.57;101598.56;5063992;28;20090;-57
2023/06/06 02:00:43;;;;;;;3.00;2.00;;;;;;;15.23;53.85;101596.25;5065928;28;20127;-57
2023/06/06 02:03:11;;;;;;;4.28;2.20;;;;;;;15.24;54.18;101592.63;5062782;28;20074;-56
2023/06/06 02:05:38;;;;;;;6.55;2.45;;;;;;;15.28;54.22;101595.97;5067034;28;20424;-58
2023/06/06 02:08:06;;;;;;;7.38;2.50;;;;;;;15.30;54.41;101602.09;5063389;28;20048;-57
2023/06/06 02:10:33;;;;;;;10.30;2.10;;;;;;;15.30;54.39;101590.56;5067809;28;20044;-57
2023/06/06 02:12:59;;;;;;;6.38;1.95;;;;;;;15.28;54.06;101595.13;5068502;28;20048;-58
2023/06/06 02:15:26;;;;;;;7.93;2.15;;;;;;;15.33;54.42;101598.41;5064089;28;20507;-57
2023/06/06 02:17:53;;;;;;;3.47;1.95;;;;;;;15.33;54.35;101595.75;5062503;28;20405;-57
2023/06/06 02:20:20;;;;;;;4.25;1.83;;;;;;;15.39;53.92;101584.78;5064932;28;20048;-57
2023/06/06 02:22:46;;;;;;;10.10;2.42;;;;;;;15.49;52.88;101591.31;5062462;28;20759;-57
2023/06/06 02:25:13;;;;;;;5.90;2.30;;;;;;;15.54;52.65;101588.41;5066197;28;20048;-57
2023/06/06 02:27:43;;;;;;;4.70;2.28;;;;;;;15.62;52.22;101593.34;5069725;28;20480;-57
2023/06/06 02:30:10;;;;;;;5.55;2.45;;;;;;;15.63;52.40;101592.38;5064870;28;20059;-57
2023/06/06 02:32:37;;;;;;;5.93;2.33;;;;;;;15.64;52.43;101583.47;5067643;28;20070;-58
2023/06/06 02:35:04;;;;;;;4.85;2.10;;;;;;;15.68;52.22;101577.03;5080639;28;20674;-58
2023/06/06 02:37:32;;;;;;;5.35;2.20;;;;;;;15.72;52.06;101575.91;5062609;28;20048;-58
2023/06/06 02:40:08;;;;;;;12.32;2.42;;;;;;;15.70;52.65;101577.81;5064599;28;20041;-57
2023/06/06 02:42:36;;;;;;;3.28;2.00;;;;;;;15.68;52.81;101574.38;5064697;28;20053;-57
2023/06/06 02:45:04;;;;;;;5.00;2.50;;;;;;;15.71;53.30;101569.72;5064856;28;20132;-57
2023/06/06 02:47:31;;;;;;;5.63;2.25;;;;;;;15.73;53.54;101574.97;5064750;28;20045;-58
2023/06/06 02:49:57;;;;;;;9.57;2.53;;;;;;;15.69;54.18;101574.28;5061842;28;20045;-57
2023/06/06 02:52:24;;;;;;;9.88;2.78;;;;;;;15.68;54.30;101571.72;5064369;28;20085;-56
2023/06/06 02:54:51;;;;;;;4.63;2.13;;;;;;;15.64;55.62;101573.66;5062960;28;20045;-57
2023/06/06 02:57:17;;;;;;;3.88;2.35;;;;;;;15.62;55.46;101580.03;5065665;28;20690;-57
2023/06/06 02:59:44;;;;;;;6.55;2.30;;;;;;;15.58;56.18;101572.19;5066981;28;20058;-57
2023/06/06 03:02:10;;;;;;;7.25;2.33;;;;;;;15.57;56.57;101578.44;5065099;28;20441;-57
2023/06/06 03:04:37;;;;;;;10.50;3.50;;;;;;;15.52;56.74;101575.19;5064921;28;20045;-57
2023/06/06 03:07:04;;;;;;;11.00;2.22;;;;;;;15.50;56.55;101577.06;5064562;28;20067;-57
2023/06/06 03:09:30;;;;;;;4.65;2.50;;;;;;;15.47;56.73;101566.56;5064393;28;20093;-56
2023/06/06 03:11:57;;;;;;;5.32;2.70;;;;;;;15.48;56.38;101573.63;5061634;28;20044;-56
2023/06/06 03:14:24;;;;;;;5.22;2.42;;;;;;;15.47;56.61;101571.91;5063564;28;20083;-57
2023/06/06 03:16:51;;;;;;;5.05;2.45;;;;;;;15.50;56.01;101560.25;5076616;28;20132;-57
2023/06/06 03:19:18;;;;;;;7.03;2.20;;;;;;;15.50;55.94;101565.56;5067103;28;20180;-56
2023/06/06 03:21:45;;;;;;;4.93;2.30;;;;;;;15.50;56.01;101570.88;5081584;28;20049;-56
2023/06/06 03:24:13;;;;;;;5.28;2.83;;;;;;;15.52;55.37;101569.00;5066038;28;20368;-57
2023/06/06 03:26:40;;;;;;;4.80;2.22;;;;;;;15.52;55.51;101580.50;5064110;28;20076;-57
2023/06/06 03:29:06;;;;;;;4.43;2.10;;;;;;;15.51;55.00;101567.25;5062965;28;20044;-58
2023/06/06 03:31:33;;;;;;;6.25;2.45;;;;;;;15.54;54.57;101562.63;5064269;28;20062;-57
2023/06/06 03:34:00;;;;;;;6.00;2.40;;;;;;;15.54;55.02;101567.97;5060180;28;20052;-58
2023/06/06 03:36:26;;;;;;;4.20;2.58;;;;;;;15.51;55.23;101560.16;5063240;28;20139;-57
2023/06/06 03:38:53;;;;;;;8.35;3.25;;;;;;;15.50;55.70;101566.41;5063428;28;20049;-57
2023/06/06 03:41:20;;;;;;;6.03;2.30;;;;;;;15.51;55.73;101570.81;5065692;28;20061;-57
2023/06/06 03:43:46;;;;;;;5.15;2.67;;;;;;;15.53;55.18;101566.25;5062133;28;20053;-57
2023/06/06 03:46:13;;;;;;;7.65;2.80;;;;;;;15.54;55.32;101562.63;5062994;28;20058;-58
2023/06/06 03:48:39;;;;;;;6.78;2.33;;;;;;;15.59;54.99;101565.06;5062242;28;20093;-57
2023/06/06 03:51:06;;;;;;;6.70;2.20;;;;;;;15.54;55.21;101567.09;5059120;28;20129;-57
2023/06/06 03:53:33;;;;;;;7.30;2.45;;;;;;;15.53;55.28;101574.25;5058383;28;20176;-57
2023/06/06 03:56:00;;;;;;;3.88;2.05;;;;;;;15.59;55.15;101568.59;5062044;28;20055;-57
2023/06/06 03:58:26;;;;;;;4.63;2.83;;;;;;;15.64;55.31;101567.47;5062919;28;20048;-58
2023/06/06 04:00:53;;;;;;;7.55;2.60;;;;;;;15.64;54.85;101562.16;5058360;28;20056;-57
2023/06/06 04:03:20;;;;;;;7.93;2.80;;;;;;;15.70;54.84;101568.00;5061860;28;20063;-56
2023/06/06 04:05:48;;;;;;;3.70;2.28;;;;;;;15.71;54.72;101566.19;5060505;28;20492;-56
2023/06/06 04:08:15;;;;;;;12.60;2.97;;;;;;;15.75;54.09;101565.09;5060100;28;20107;-57
2023/06/06 04:10:42;;;;;;;4.80;2.30;;;;;;;15.82;54.21;101560.31;5062332;28;20040;-56
2023/06/06 04:13:08;;;;;;;4.63;2.03;;;;;;;15.86;53.24;101561.88;5062549;28;20076;-57
2023/06/06 04:15:35;;;;;;;5.45;2.38;;;;;;;15.89;52.90;101565.22;5061741;28;20132;-56
2023/06/06 04:18:03;;;;;;;7.03;2.28;;;;;;;15.92;52.20;101566.84;5060653;28;20045;-57
2023/06/06 04:20:32;;;;;;;6.13;2.40;;;;;;;15.99;51.93;101562.91;5062341;28;20137;-57
2023/06/06 04:23:02;;;;;;;8.13;2.78;;;;;;;16.09;52.40;101565.94;5044054;28;20049;-57
2023/06/06 04:25:29;;;;;;;11.18;2.35;;;;;;;16.16;52.39;101564.63;5060263;28;20049;-58
2023/06/06 04:27:56;;;;;;;5.35;2.35;;;;;;;16.22;52.28;101566.09;5064179;28;20429;-57
2023/06/06 04:30:23;;;;;;;10.18;2.47;;;;;;;16.25;51.38;101569.44;5061580;28;20052;-56
2023/06/06 04:32:51;;;;;;;5.53;2.53;;;;;;;16.39;51.00;101573.13;5062323;28;20051;-57
2023/06/06 04:35:18;;;;;;;4.60;2.17;;;;;;;16.41;51.00;101569.44;5060367;28;20041;-57
2023/06/06 04:37:47;;;;;;;5.50;2.50;;;;;;;16.43;51.75;101572.88;5061116;28;20045;-56
2023/06/06 04:40:15;;;;;;;10.13;2.60;;;;;;;16.44;51.72;101565.72;5078579;28;20472;-57
2023/06/06 04:42:42;;;;;;;5.68;2.58;;;;;;;16.53;51.82;101573.22;5062519;28;20041;-57
2023/06/06 04:45:10;;;;;;;6.22;2.72;;;;;;;16.66;52.02;101574.22;5062027;28;20399;-57
2023/06/06 04:47:39;;;;;;;6.60;2.85;;;;;;;16.75;51.93;101574.63;5060160;28;20106;-57
2023/06/06 04:50:06;;;;;;;10.93;2.70;;;;;;;16.86;51.51;101581.06;5063238;28;20143;-57
2023/06/06 04:52:34;;;;;;;7.80;2.40;;;;;;;16.85;51.68;101573.16;5062092;28;20152;-57
2023/06/06 04:55:03;;;;;;;4.90;2.22;;;;;;;16.91;51.44;101570.13;5063236;28;20053;-57
2023/06/06 04:57:29;;;;;;;5.22;2.25;;;;;;;16.98;51.57;101576.81;5061357;28;20048;-57
2023/06/06 04:59:56;;;;;;;5.25;3.00;;;;;;;17.04;51.40;101568.44;5062011;28;20087;-58
2023/06/06 05:02:26;;;;;;;6.30;2.95;;;;;;;17.13;51.34;101583.06;5060812;28;20131;-58
2023/06/06 05:04:57;;;;;;;11.75;3.08;;;;;;;17.16;51.09;101577.53;5060042;28;20076;-57
2023/06/06 05:07:24;;;;;;;4.68;2.63;;;;;;;17.10;51.25;101579.72;5060891;28;20116;-57
2023/06/06 05:09:52;;;;;;;14.02;3.17;;;;;;;17.05;51.03;101570.19;5060373;28;20054;-56
2023/06/06 05:12:22;;;;;;;11.45;2.85;;;;;;;17.08;51.40;101577.13;5061609;28;20076;-56
2023/06/06 05:14:49;;;;;;;7.07;2.50;;;;;;;16.99;52.11;101581.22;5061496;28;20445;-57
2023/06/06 05:17:18;;;;;;;5.18;2.47;;;;;;;17.01;52.02;101571.28;5059523;28;20130;-57
2023/06/06 05:19:45;;;;;;;7.95;2.92;;;;;;;17.03;52.13;101581.88;5075745;28;20044;-57
2023/06/06 05:22:15;;;;;;;7.68;2.30;;;;;;;17.06;51.87;101573.69;5060301;28;20151;-57
2023/06/06 05:24:43;;;;;;;8.70;2.22;;;;;;;17.16;51.56;101571.31;5058043;28;20118;-57
2023/06/06 05:27:10;;;;;;;7.72;2.20;;;;;;;17.21;51.57;101570.13;5059291;28;20106;-57
2023/06/06 05:29:37;;;;;;;11.07;3.50;;;;;;;17.25;51.69;101578.78;5062472;28;20048;-58
2023/06/06 05:32:05;;;;;;;4.03;2.45;;;;;;;17.27;51.98;101579.56;5058125;28;20128;-57
2023/06/06 05:34:33;;;;;;;7.78;2.65;;;;;;;17.22;51.60;101581.66;5058555;28;20062;-57
2023/06/06 05:37:00;;;;;;;4.93;2.50;;;;;;;17.41;50.98;101587.59;5061026;28;20047;-57
2023/06/06 05:39:27;;;;;;;17.00;3.00;;;;;;;17.58;50.08;101594.56;5061444;28;20052;-57
2023/06/06 05:41:54;;;;;;;3.42;2.35;;;;;;;17.75;49.52;101601.56;5057804;28;20049;-57
2023/06/06 05:44:22;;;;;;;6.25;2.88;;;;;;;17.84;49.31;101593.91;5059435;28;20080;-57
2023/06/06 05:46:54;;;;;;;11.13;3.05;;;;;;;17.88;49.95;101595.44;5061881;28;20060;-57
2023/06/06 05:49:21;;;;;;;9.90;2.60;;;;;;;18.05;49.20;101603.28;5074739;28;20052;-57
2023/06/06 05:51:48;;;;;;;6.72;3.17;;;;;;;18.11;49.10;101592.19;5062021;28;20062;-57
2023/06/06 05:54:15;;;;;;;4.72;2.40;;;;;;;18.24;49.01;101591.38;5060232;28;20409;-57
2023/06/06 05:56:43;;;;;;;7.60;3.08;;;;;;;18.46;47.76;101597.06;5059575;28;20044;-57
2023/06/06 05:59:09;;;;;;;6.13;2.28;;;;;;;18.58;45.51;101599.88;5060382;28;20045;-57
2023/06/06 06:01:39;;;;;;;7.18;2.58;;;;;;;18.67;44.36;101601.97;5060326;28;20091;-57
2023/06/06 06:04:07;;;;;;;8.57;2.45;;;;;;;18.74;43.59;101600.59;5060933;28;20425;-57
2023/06/06 06:06:35;;;;;;;4.93;2.08;;;;;;;18.92;43.36;101603.88;5060611;28;20059;-57
2023/06/06 06:09:03;;;;;;;5.13;2.40;;;;;;;19.07;42.86;101607.34;5060196;28;20147;-57
2023/06/06 06:11:30;;;;;;;8.32;2.40;;;;;;;19.07;42.17;101601.97;5060918;28;20146;-56
2023/06/06 06:13:58;;;;;;;9.48;3.03;;;;;;;19.10;42.62;101601.78;5060310;28;20143;-56
2023/06/06 06:16:25;;;;;;;6.93;2.30;;;;;;;19.29;43.89;101600.50;5060217;28;20496;-57
2023/06/06 06:18:51;;;;;;;4.90;2.88;;;;;;;19.48;42.39;101606.28;5060889;28;20060;-57
2023/06/06 06:21:19;;;;;;;9.13;2.65;;;;;;;19.53;42.21;101600.63;5060981;28;20047;-56
2023/06/06 06:23:46;;;;;;;5.05;2.28;;;;;;;19.69;42.03;101603.09;5056871;28;20415;-56
2023/06/06 06:26:13;;;;;;;5.13;2.42;;;;;;;19.88;40.55;101602.66;5059650;28;20048;-56
2023/06/06 06:28:40;;;;;;;12.93;2.88;;;;;;;20.12;40.13;101602.72;5062281;28;20052;-57
2023/06/06 06:31:06;;;;;;;10.50;2.85;;;;;;;20.22;39.37;101601.09;5062687;28;20127;-57
2023/06/06 06:33:33;;;;;;;8.32;3.08;;;;;;;20.30;39.24;101604.06;5059896;28;20048;-57
2023/06/06 06:36:01;;;;;;;9.30;3.03;;;;;;;20.45;38.58;101601.19;5059460;28;20079;-57
2023/06/06 06:38:27;;;;;;;6.65;3.13;;;;;;;20.57;38.43;101600.28;5064973;28;20139;-57
2023/06/06 06:40:54;;;;;;;6.57;2.22;;;;;;;20.85;36.96;101609.00;5061554;28;20139;-57
2023/06/06 06:43:21;;;;;;;5.45;2.17;;;;;;;20.95;35.99;101604.63;5064327;28;20064;-57
2023/06/06 06:45:49;;;;;;;16.85;2.63;;;;;;;21.16;34.88;101606.66;5062922;28;20565;-57
2023/06/06 06:48:15;;;;;;;9.48;2.50;;;;;;;21.17;35.31;101614.59;5064632;28;20170;-57
2023/06/06 06:50:42;;;;;;;7.18;2.58;;;;;;;21.35;35.20;101606.94;5061179;28;20421;-58
2023/06/06 06:53:09;;;;;;;6.05;2.53;;;;;;;21.30;34.81;101614.53;5063787;28;20049;-57
2023/06/06 06:55:38;;;;;;;5.25;2.80;;;;;;;21.21;35.31;101613.38;5064195;28;20044;-58
2023/06/06 06:58:06;;;;;;;7.43;2.35;;;;;;;21.31;35.40;101610.84;5065566;28;20124;-57
2023/06/06 07:00:33;;;;;;;7.65;2.50;;;;;;;21.37;35.90;101621.13;5058982;28;20365;-58
2023/06/06 07:03:03;;;;;;;7.60;2.83;;;;;;;21.44;35.03;101616.97;5063534;28;20127;-57
2023/06/06 07:05:31;;;;;;;6.07;2.30;;;;;;;21.45;34.50;101616.00;5065161;28;20044;-57
2023/06/06 07:07:59;;;;;;;12.90;2.22;;;;;;;21.45;34.85;101613.31;5064594;28;20047;-57
2023/06/06 07:10:28;;;;;;;6.90;2.63;;;;;;;21.49;35.30;101623.88;5064641;28;20558;-57
2023/06/06 07:12:56;;;;;;;11.80;2.80;;;;;;;21.64;34.79;101617.28;5063510;28;20160;-57
2023/06/06 07:15:22;;;;;;;11.43;3.40;;;;;;;21.53;35.36;101623.50;5066486;28;20057;-57
2023/06/06 07:17:50;;;;;;;10.93;2.70;;;;;;;21.52;36.76;101618.25;5068173;28;20048;-57
2023/06/06 07:20:19;;;;;;;11.02;2.33;;;;;;;21.44;35.98;101627.72;5059677;28;20055;-57
2023/06/06 07:22:46;;;;;;;6.35;1.90;;;;;;;21.65;35.41;101613.63;5060936;28;20049;-56
2023/06/06 07:25:14;;;;;;;8.50;2.20;;;;;;;21.93;34.97;101632.94;5060763;28;20139;-56
2023/06/06 07:27:41;;;;;;;5.78;2.53;;;;;;;22.10;35.25;101619.00;5064710;28;20083;-56
2023/06/06 07:30:13;;;;;;;7.63;2.55;;;;;;;22.40;34.88;101628.28;5058950;28;20102;-57
2023/06/06 07:32:41;;;;;;;7.25;2.45;;;;;;;22.39;33.69;101623.84;5061746;28;20465;-57
2023/06/06 07:35:16;;;;;;;12.90;2.80;;;;;;;22.28;34.03;101621.16;5065537;28;20110;-58
2023/06/06 07:37:43;;;;;;;7.78;2.35;;;;;;;22.26;34.38;101620.44;5060528;28;20079;-57
2023/06/06 07:40:11;;;;;;;7.47;2.47;;;;;;;22.16;34.11;101623.84;5066190;28;20076;-58
2023/06/06 07:42:41;;;;;;;9.80;2.60;;;;;;;22.34;34.22;101620.69;5067358;28;20413;-56
2023/06/06 07:45:09;;;;;;;6.57;2.80;;;;;;;22.37;34.86;101625.81;5066514;28;20121;-56
2023/06/06 07:47:36;;;;;;;11.15;2.47;;;;;;;22.29;34.60;101623.75;5062572;28;20135;-56
2023/06/06 07:50:03;;;;;;;7.57;2.60;;;;;;;22.52;33.72;101629.09;5063240;28;20159;-56
2023/06/06 07:52:33;;;;;;;8.13;2.75;;;;;;;22.42;34.30;101623.59;5065707;28;20409;-57
2023/06/06 07:55:00;;;;;;;16.83;2.40;;;;;;;22.41;34.81;101621.91;5061839;28;20065;-57
2023/06/06 07:57:27;;;;;;;8.43;2.65;;;;;;;22.77;33.50;101618.97;5067102;28;20299;-57
2023/06/06 07:59:54;;;;;;;4.68;2.53;;;;;;;22.79;33.14;101619.69;5063161;28;20041;-57
2023/06/06 08:02:22;;;;;;;7.13;2.80;;;;;;;22.66;33.51;101625.25;5062301;28;20045;-57
2023/06/06 08:04:50;;;;;;;5.90;2.50;;;;;;;22.77;33.99;101617.13;5060791;28;20067;-56
2023/06/06 08:07:18;;;;;;;6.72;2.70;;;;;;;22.66;33.72;101619.88;5063272;28;20052;-58
2023/06/06 08:09:45;;;;;;;5.95;3.00;;;;;;;22.83;33.31;101626.53;5064261;28;20192;-57
2023/06/06 08:12:13;;;;;;;3.70;2.30;;;;;;;22.59;33.44;101619.53;5063131;28;20052;-57
2023/06/06 08:14:41;;;;;;;5.03;2.47;;;;;;;22.60;33.67;101620.38;5065486;28;20437;-58
2023/06/06 08:17:07;;;;;;;6.45;2.67;;;;;;;22.11;34.08;101626.06;5081418;28;20072;-57
2023/06/06 08:19:34;;;;;;;5.63;2.22;;;;;;;22.68;33.02;101607.13;5063133;28;20470;-57
2023/06/06 08:22:02;;;;;;;7.57;3.45;;;;;;;22.77;32.77;101617.13;5061920;28;20041;-58
2023/06/06 08:24:29;;;;;;;7.95;2.65;;;;;;;23.08;33.12;101614.56;5059070;28;20048;-57
2023/06/06 08:26:56;;;;;;;7.60;2.45;;;;;;;23.15;32.41;101615.75;5063045;28;20813;-56
2023/06/06 08:29:23;;;;;;;7.70;2.35;;;;;;;23.18;33.24;101625.41;5067008;28;20056;-57
2023/06/06 08:31:50;;;;;;;13.32;2.70;;;;;;;23.38;32.75;101615.63;5062726;28;20047;-57
2023/06/06 08:34:17;;;;;;;7.32;2.88;;;;;;;23.35;33.01;101615.88;5064893;28;20535;-57
2023/06/06 08:36:44;;;;;;;10.25;2.78;;;;;;;23.59;33.13;101613.75;5064774;28;20045;-57
2023/06/06 08:39:11;;;;;;;11.68;2.67;;;;;;;23.80;32.65;101615.53;5059440;28;20087;-57
2023/06/06 08:41:41;;;;;;;5.60;2.65;;;;;;;23.61;32.04;101611.75;5064433;28;20599;-56
2023/06/06 08:44:08;;;;;;;;;;;;;;;23.41;33.31;101616.22;5063338;28;20040;-56
2023/06/06 08:46:35;;;;;;;6.55;2.88;;;;;;;23.03;32.83;101612.25;5063342;28;20019;-57
2023/06/06 08:49:04;;;;;;;5.07;3.00;;;;;;;22.85;33.17;101614.66;5060980;28;20376;-57
2023/06/06 08:51:31;;;;;;;10.18;2.88;;;;;;;23.13;33.20;101615.03;5061185;28;20052;-57
2023/06/06 08:53:59;;;;;;;10.63;2.80;;;;;;;23.44;32.57;101609.66;5060674;28;20182;-57
2023/06/06 08:56:27;;;;;;;10.73;3.63;;;;;;;23.15;32.43;101620.28;5059479;28;20131;-57
2023/06/06 08:58:53;;;;;;;6.35;2.72;;;;;;;23.38;32.52;101612.94;5061572;28;20086;-57
2023/06/06 09:01:20;;;;;;;4.70;2.72;;;;;;;23.62;32.23;101618.88;5059058;28;20515;-57
2023/06/06 09:03:56;;;;;;;8.27;2.75;;;;;;;23.68;31.93;101611.22;5045479;28;20052;-57
2023/06/06 09:06:22;;;;;;;9.73;3.42;;;;;;;24.01;31.68;101620.91;5062651;28;20139;-57
2023/06/06 09:08:49;;;;;;;6.75;2.78;;;;;;;24.09;31.64;101609.41;5061560;28;20121;-57
2023/06/06 09:11:17;;;;;;;6.65;2.55;;;;;;;24.35;31.28;101617.88;5062959;28;20075;-57
2023/06/06 09:13:45;;;;;;;10.05;2.78;;;;;;;24.71;31.42;101620.94;5064394;28;20052;-57
2023/06/06 09:16:14;;;;;;;5.20;2.60;;;;;;;24.68;30.32;101616.69;5064223;28;21845;-58
2023/06/06 09:18:42;;;;;;;9.43;2.97;;;;;;;24.46;30.39;101622.31;5060765;28;20488;-57
2023/06/06 09:21:09;;;;;;;8.18;2.60;;;;;;;24.86;30.14;101624.06;5062805;28;20047;-57
2023/06/06 09:23:36;;;;;;;11.27;3.58;;;;;;;24.89;30.09;101626.47;5061273;28;20049;-57
2023/06/06 09:26:16;;;;;;;8.70;3.08;;;;;;;25.17;30.47;101621.19;5075475;28;20117;-57
2023/06/06 09:28:43;;;;;;;9.40;3.95;;;;;;;25.31;30.00;101628.06;5060647;28;20060;-57
2023/06/06 09:31:37;;;;;;;8.95;3.53;;;;;;;25.08;29.92;101628.34;5061905;28;20050;-57
2023/06/06 09:34:06;;;;;;;8.68;3.45;;;;;;;25.33;29.64;101626.88;5064244;28;20045;-57
2023/06/06 09:36:33;;;;;;;7.60;3.33;;;;;;;24.76;30.14;101617.81;5063432;28;21068;-57
2023/06/06 09:39:05;;;;;;;9.15;2.97;;;;;;;24.98;30.31;101622.94;5060287;28;20075;-56
2023/06/06 09:41:39;;;;;;;14.30;3.45;;;;;;;24.76;30.18;101613.25;5062851;28;20080;-57
2023/06/06 09:44:15;;;;;;;8.23;2.97;;;;;;;25.09;29.81;101620.06;5058983;28;20132;-57
2023/06/06 09:46:42;;;;;;;8.73;3.22;;;;;;;25.10;29.53;101610.94;5061912;28;20896;-57
2023/06/06 09:49:12;;;;;;;5.10;3.40;;;;;;;24.91;30.25;101619.06;5062901;28;20154;-57
2023/06/06 09:51:43;;;;;;;6.22;3.05;;;;;;;24.83;30.13;101618.94;5062720;28;20109;-58
2023/06/06 09:54:11;;;;;;;11.18;3.65;;;;;;;24.84;30.69;101612.53;5060045;28;20060;-57
2023/06/06 09:56:42;;;;;;;7.03;2.72;;;;;;;24.91;30.38;101610.97;5061347;28;20040;-62
2023/06/06 09:59:10;;;;;;;8.10;3.33;;;;;;;25.14;30.44;101621.47;5062952;28;20044;-58
2023/06/06 10:01:38;;;;;;;8.07;2.85;;;;;;;24.97;30.41;101615.81;5062754;28;20071;-57
2023/06/06 10:04:07;;;;;;;6.88;3.80;;;;;;;24.72;30.99;101609.97;5063048;28;20388;-58
2023/06/06 10:06:34;;;;;;;9.95;3.90;;;;;;;24.87;31.06;101614.97;5061916;28;20053;-57
2023/06/06 10:09:02;;;;;;;16.00;3.92;;;;;;;25.18;30.89;101620.22;5058781;28;20611;-57
2023/06/06 10:11:30;;;;;;;8.20;3.53;;;;;;;25.12;31.10;101613.50;5061342;28;20049;-57
2023/06/06 10:13:58;;;;;;;12.38;3.13;;;;;;;25.15;30.97;101615.09;5065839;28;20126;-57
2023/06/06 10:16:29;;;;;;;7.22;3.05;;;;;;;25.10;31.16;101613.66;5069651;28;20044;-58
2023/06/06 10:18:57;;;;;;;5.97;2.50;;;;;;;25.16;30.87;101620.34;5066503;28;20051;-58
2023/06/06 10:21:25;;;;;;;7.13;5.32;;;;;;;25.39;30.38;101623.59;5064671;28;20056;-57
2023/06/06 10:23:53;;;;;;;8.25;3.28;;;;;;;25.69;30.36;101621.66;5067115;28;20170;-56
2023/06/06 10:26:36;;;;;;;6.63;3.30;;;;;;;25.49;30.23;101622.75;5063310;28;20057;-57
2023/06/06 10:29:13;;;;;;;7.78;3.00;;;;;;;25.51;30.47;101624.28;5065223;28;20076;-58
2023/06/06 10:31:57;;;;;;;16.30;3.70;;;;;;;25.29;30.51;101625.50;5066284;28;20407;-57
2023/06/06 10:34:30;;;;;;;8.55;3.63;;;;;;;24.93;31.72;101627.91;5059118;28;20433;-57
2023/06/06 10:37:13;;;;;;;8.95;3.70;;;;;;;24.59;32.08;101627.47;5065324;28;20045;-57
2023/06/06 10:39:41;;;;;;;6.82;3.58;;;;;;;24.84;32.44;101631.47;5063824;28;20365;-57
2023/06/06 10:42:10;;;;;;;10.05;3.45;;;;;;;25.08;31.92;101631.88;5081380;28;20044;-57
2023/06/06 10:44:46;;;;;;;12.77;3.03;;;;;;;25.03;32.19;101626.06;5062939;28;20068;-58
2023/06/06 10:47:23;;;;;;;8.20;3.17;;;;;;;25.40;32.25;101622.63;5062471;28;20080;-57
2023/06/06 10:50:11;;;;;;;6.80;3.28;;;;;;;25.05;31.94;101625.91;5063937;28;20072;-57
2023/06/06 10:52:41;;;;;;;6.95;3.03;;;;;;;25.18;31.63;101622.91;5062199;28;20601;-57
2023/06/06 10:55:29;;;;;;;6.65;3.05;;;;;;;25.70;30.93;101617.97;5062265;28;20578;-57
2023/06/06 10:58:18;;;;;;;5.53;2.67;;;;;;;25.64;30.60;101618.53;5054942;28;20102;-57
2023/06/06 11:00:50;;;;;;;4.10;2.80;;;;;;;25.88;30.37;101614.44;5060572;28;20131;-57
2023/06/06 11:03:32;;;;;;;3.72;2.33;;;;;;;25.67;30.96;101620.97;5061721;28;20079;-59
2023/06/06 11:06:18;;;;;;;6.68;3.10;;;;;;;25.89;30.49;101616.16;5064287;28;20064;-57
2023/06/06 11:08:59;;;;;;;8.30;2.97;;;;;;;25.82;30.89;101611.34;5065405;28;20135;-57
2023/06/06 11:11:31;;;;;;;3.42;2.35;;;;;;;25.79;31.18;101608.09;5067428;28;20128;-57
2023/06/06 11:14:07;;;;;;;4.97;3.08;;;;;;;25.85;30.56;101617.47;5061805;28;20393;-57
2023/06/06 11:16:37;;;;;;;5.45;3.10;;;;;;;26.13;30.15;101611.06;5064352;28;20044;-58
2023/06/06 11:19:16;;;;;;;10.27;2.77;;;;;;;26.16;30.46;101604.50;5064986;28;20152;-58
2023/06/06 11:21:48;;;;;;;7.38;2.70;;;;;;;25.93;30.94;101606.75;5060413;28;20084;-56
2023/06/06 11:24:18;;;;;;;4.95;3.05;;;;;;;25.89;30.80;101605.34;5059799;28;20052;-57
2023/06/06 11:26:46;;;;;;;7.68;3.13;;;;;;;26.16;30.62;101599.94;5063496;28;20047;-57
2023/06/06 11:29:12;;;;;;;5.22;2.63;;;;;;;25.60;31.88;101603.59;5061411;28;20511;-57
2023/06/06 11:31:39;;;;;;;4.80;2.88;;;;;;;25.93;31.45;101617.59;5065457;28;20048;-57